sensor_id;sensor_type;location;lat;lon;timestamp;pressure;altitude;pressure_sealevel;temperature;humidity
4449;BME280;2237;51.870;6.160;2023-05-02T00:00:14;101806.75;;;14.04;100.00
4449;BME280;2237;51.870;6.160;2023-05-02T00:02:41;101814.16;;;13.82;100.00
4449;BME280;2237;51.870;6.160;2023-05-02T00:05:07;101810.72;;;13.79;100.00
4449;BME280;2237;51.870;6.160;2023-05-02T00:07:35;101823.06;;;13.75;100.00
4449;BME280;2237;51.870;6.160;2023-05-02T00:10:01;101815.13;;;13.78;100.00
4449;BME280;2237;51.870;6.160;2023-05-02T00:12:28;101826.50;;;13.77;100.00
4449;BME280;2237;51.870;6.160;2023-05-02T00:14:54;101822.81;;;13.86;100.00
4449;BME280;2237;51.870;6.160;2023-05-02T00:17:21;101826.16;;;13.94;100.00
4449;BME280;2237;51.870;6.160;2023-05-02T00:19:47;101824.44;;;13.93;100.00
4449;BME280;2237;51.870;6.160;2023-05-02T00:22:14;101831.56;;;13.86;100.00
4449;BME280;2237;51.870;6.160;2023-05-02T00:24:40;101824.50;;;13.90;100.00
4449;BME280;2237;51.870;6.160;2023-05-02T00:27:06;101825.50;;;13.84;100.00
4449;BME280;2237;51.870;6.160;2023-05-02T00:29:33;101823.63;;;13.89;100.00
4449;BME280;2237;51.870;6.160;2023-05-02T00:31:59;101824.38;;;13.96;100.00
4449;BME280;2237;51.870;6.160;2023-05-02T00:34:29;101820.09;;;13.90;100.00
4449;BME280;2237;51.870;6.160;2023-05-02T00:36:56;101828.69;;;13.98;100.00
4449;BME280;2237;51.870;6.160;2023-05-02T00:39:23;101824.03;;;14.12;100.00
4449;BME280;2237;51.870;6.160;2023-05-02T00:41:58;101827.44;;;14.16;100.00
4449;BME280;2237;51.870;6.160;2023-05-02T00:44:24;101825.78;;;14.10;100.00
4449;BME280;2237;51.870;6.160;2023-05-02T00:46:51;101837.53;;;13.93;100.00
4449;BME280;2237;51.870;6.160;2023-05-02T00:49:18;101842.09;;;13.83;100.00
4449;BME280;2237;51.870;6.160;2023-05-02T00:51:45;101840.94;;;13.96;100.00
4449;BME280;2237;51.870;6.160;2023-05-02T00:54:12;101830.41;;;13.99;100.00
4449;BME280;2237;51.870;6.160;2023-05-02T00:56:38;101835.69;;;13.96;100.00
4449;BME280;2237;51.870;6.160;2023-05-02T00:59:06;101840.13;;;13.94;100.00
4449;BME280;2237;51.870;6.160;2023-05-02T01:02:10;101841.91;;;13.91;100.00
4449;BME280;2237;51.870;6.160;2023-05-02T01:10:31;101842.22;;;13.76;100.00
4449;BME280;2237;51.870;6.160;2023-05-02T01:13:09;101850.56;;;13.50;100.00
4449;BME280;2237;51.870;6.160;2023-05-02T01:15:38;101847.88;;;13.54;100.00
4449;BME280;2237;51.870;6.160;2023-05-02T01:18:07;101848.09;;;13.42;100.00
4449;BME280;2237;51.870;6.160;2023-05-02T01:20:38;101847.94;;;13.51;100.00
4449;BME280;2237;51.870;6.160;2023-05-02T01:23:24;101847.00;;;13.54;100.00
4449;BME280;2237;51.870;6.160;2023-05-02T01:31:22;101842.44;;;13.65;100.00
4449;BME280;2237;51.870;6.160;2023-05-02T01:33:51;101846.78;;;13.66;100.00
4449;BME280;2237;51.870;6.160;2023-05-02T01:36:19;101829.28;;;13.68;100.00
4449;BME280;2237;51.870;6.160;2023-05-02T01:38:46;101841.50;;;13.68;100.00
4449;BME280;2237;51.870;6.160;2023-05-02T01:41:14;101843.41;;;13.61;100.00
4449;BME280;2237;51.870;6.160;2023-05-02T01:43:43;101842.47;;;13.62;100.00
4449;BME280;2237;51.870;6.160;2023-05-02T01:46:10;101849.47;;;13.62;100.00
4449;BME280;2237;51.870;6.160;2023-05-02T01:48:41;101852.19;;;13.57;100.00
4449;BME280;2237;51.870;6.160;2023-05-02T01:51:10;101850.50;;;13.54;100.00
4449;BME280;2237;51.870;6.160;2023-05-02T01:53:38;101846.78;;;13.66;100.00
4449;BME280;2237;51.870;6.160;2023-05-02T01:56:05;101857.88;;;13.79;100.00
4449;BME280;2237;51.870;6.160;2023-05-02T01:58:34;101859.59;;;13.81;100.00
4449;BME280;2237;51.870;6.160;2023-05-02T02:01:02;101857.78;;;13.83;100.00
4449;BME280;2237;51.870;6.160;2023-05-02T02:03:30;101861.28;;;13.82;100.00
4449;BME280;2237;51.870;6.160;2023-05-02T02:05:58;101870.06;;;13.81;100.00
4449;BME280;2237;51.870;6.160;2023-05-02T02:08:26;101874.56;;;13.73;100.00
4449;BME280;2237;51.870;6.160;2023-05-02T02:11:03;101881.63;;;13.70;100.00
4449;BME280;2237;51.870;6.160;2023-05-02T02:13:38;101878.13;;;13.69;100.00
4449;BME280;2237;51.870;6.160;2023-05-02T02:16:06;101876.41;;;13.68;100.00
4449;BME280;2237;51.870;6.160;2023-05-02T02:18:37;101880.75;;;13.69;100.00
4449;BME280;2237;51.870;6.160;2023-05-02T02:21:08;101873.03;;;13.62;100.00
4449;BME280;2237;51.870;6.160;2023-05-02T02:23:37;101885.47;;;13.49;100.00
4449;BME280;2237;51.870;6.160;2023-05-02T02:26:06;101882.94;;;13.44;100.00
4449;BME280;2237;51.870;6.160;2023-05-02T02:28:33;101874.97;;;13.50;100.00
4449;BME280;2237;51.870;6.160;2023-05-02T02:31:00;101876.56;;;13.59;100.00
4449;BME280;2237;51.870;6.160;2023-05-02T02:33:29;101883.44;;;13.65;100.00
4449;BME280;2237;51.870;6.160;2023-05-02T02:38:47;101880.81;;;13.65;100.00
4449;BME280;2237;51.870;6.160;2023-05-02T02:41:27;101886.09;;;13.62;100.00
4449;BME280;2237;51.870;6.160;2023-05-02T02:44:05;101892.44;;;13.50;100.00
4449;BME280;2237;51.870;6.160;2023-05-02T02:46:50;101895.22;;;13.39;100.00
4449;BME280;2237;51.870;6.160;2023-05-02T02:52:05;101909.97;;;13.45;100.00
4449;BME280;2237;51.870;6.160;2023-05-02T02:54:44;101912.81;;;13.31;100.00
4449;BME280;2237;51.870;6.160;2023-05-02T02:57:25;101922.50;;;13.25;100.00
4449;BME280;2237;51.870;6.160;2023-05-02T03:00:06;101930.59;;;13.11;100.00
4449;BME280;2237;51.870;6.160;2023-05-02T03:02:34;101928.97;;;12.98;100.00
4449;BME280;2237;51.870;6.160;2023-05-02T03:05:03;101933.47;;;12.90;100.00
4449;BME280;2237;51.870;6.160;2023-05-02T03:07:31;101937.00;;;12.87;100.00
4449;BME280;2237;51.870;6.160;2023-05-02T03:10:02;101934.38;;;12.87;100.00
4449;BME280;2237;51.870;6.160;2023-05-02T03:12:29;101943.88;;;12.93;100.00
4449;BME280;2237;51.870;6.160;2023-05-02T03:17:35;101962.34;;;12.82;100.00
4449;BME280;2237;51.870;6.160;2023-05-02T03:20:02;101959.84;;;12.73;100.00
4449;BME280;2237;51.870;6.160;2023-05-02T03:22:28;101959.13;;;12.62;100.00
4449;BME280;2237;51.870;6.160;2023-05-02T03:24:55;101971.31;;;12.62;100.00
4449;BME280;2237;51.870;6.160;2023-05-02T03:27:21;101962.75;;;12.51;100.00
4449;BME280;2237;51.870;6.160;2023-05-02T03:29:47;101966.97;;;12.62;100.00
4449;BME280;2237;51.870;6.160;2023-05-02T03:32:14;101975.75;;;12.55;100.00
4449;BME280;2237;51.870;6.160;2023-05-02T03:34:40;101969.53;;;12.65;100.00
4449;BME280;2237;51.870;6.160;2023-05-02T03:37:06;101980.91;;;12.61;100.00
4449;BME280;2237;51.870;6.160;2023-05-02T03:39:33;101978.47;;;12.46;100.00
4449;BME280;2237;51.870;6.160;2023-05-02T03:41:59;101986.38;;;12.40;100.00
4449;BME280;2237;51.870;6.160;2023-05-02T03:44:26;101984.66;;;12.37;100.00
4449;BME280;2237;51.870;6.160;2023-05-02T03:46:53;101988.16;;;12.36;100.00
4449;BME280;2237;51.870;6.160;2023-05-02T03:49:19;101979.41;;;12.42;100.00
4449;BME280;2237;51.870;6.160;2023-05-02T03:51:46;101975.03;;;12.44;100.00
4449;BME280;2237;51.870;6.160;2023-05-02T03:54:12;101987.94;;;12.56;100.00
4449;BME280;2237;51.870;6.160;2023-05-02T03:56:38;102000.09;;;12.57;100.00
4449;BME280;2237;51.870;6.160;2023-05-02T03:59:08;102001.91;;;12.54;100.00
4449;BME280;2237;51.870;6.160;2023-05-02T04:01:34;102003.75;;;12.44;100.00
4449;BME280;2237;51.870;6.160;2023-05-02T04:04:00;102002.84;;;12.45;100.00
4449;BME280;2237;51.870;6.160;2023-05-02T04:06:27;102008.00;;;12.51;100.00
4449;BME280;2237;51.870;6.160;2023-05-02T04:08:53;102010.56;;;12.57;100.00
4449;BME280;2237;51.870;6.160;2023-05-02T04:11:20;102011.47;;;12.56;100.00
4449;BME280;2237;51.870;6.160;2023-05-02T04:13:47;102017.69;;;12.43;100.00
4449;BME280;2237;51.870;6.160;2023-05-02T04:16:13;102013.41;;;12.37;100.00
4449;BME280;2237;51.870;6.160;2023-05-02T04:18:40;102010.66;;;12.50;100.00
4449;BME280;2237;51.870;6.160;2023-05-02T04:21:07;102017.63;;;12.49;100.00
4449;BME280;2237;51.870;6.160;2023-05-02T04:23:35;102014.97;;;12.52;100.00
4449;BME280;2237;51.870;6.160;2023-05-02T04:26:02;102017.47;;;12.63;100.00
4449;BME280;2237;51.870;6.160;2023-05-02T04:28:28;102023.63;;;12.57;100.00
4449;BME280;2237;51.870;6.160;2023-05-02T04:30:55;102015.94;;;12.43;100.00
4449;BME280;2237;51.870;6.160;2023-05-02T04:33:22;102032.50;;;12.42;100.00
4449;BME280;2237;51.870;6.160;2023-05-02T04:35:49;102036.81;;;12.45;100.00
4449;BME280;2237;51.870;6.160;2023-05-02T04:38:16;102039.41;;;12.50;100.00
4449;BME280;2237;51.870;6.160;2023-05-02T04:40:42;102040.25;;;12.53;100.00
4449;BME280;2237;51.870;6.160;2023-05-02T04:43:09;102048.00;;;12.58;100.00
4449;BME280;2237;51.870;6.160;2023-05-02T04:45:36;102054.06;;;12.60;100.00
4449;BME280;2237;51.870;6.160;2023-05-02T04:48:02;102054.97;;;12.59;100.00
4449;BME280;2237;51.870;6.160;2023-05-02T04:50:29;102060.34;;;12.46;100.00
4449;BME280;2237;51.870;6.160;2023-05-02T04:52:57;102061.06;;;12.58;100.00
4449;BME280;2237;51.870;6.160;2023-05-02T04:55:24;102067.34;;;12.44;100.00
4449;BME280;2237;51.870;6.160;2023-05-02T04:57:50;102079.38;;;12.59;100.00
4449;BME280;2237;51.870;6.160;2023-05-02T05:00:17;102075.00;;;12.57;100.00
4449;BME280;2237;51.870;6.160;2023-05-02T05:02:43;102071.50;;;12.62;100.00
4449;BME280;2237;51.870;6.160;2023-05-02T05:05:10;102091.59;;;12.54;100.00
4449;BME280;2237;51.870;6.160;2023-05-02T05:07:36;102091.63;;;12.53;100.00
4449;BME280;2237;51.870;6.160;2023-05-02T05:10:03;102088.09;;;12.57;100.00
4449;BME280;2237;51.870;6.160;2023-05-02T05:12:29;102090.69;;;12.57;100.00
4449;BME280;2237;51.870;6.160;2023-05-02T05:14:55;102091.53;;;12.60;100.00
4449;BME280;2237;51.870;6.160;2023-05-02T05:17:22;102095.88;;;12.64;100.00
4449;BME280;2237;51.870;6.160;2023-05-02T05:19:48;102105.31;;;12.74;100.00
4449;BME280;2237;51.870;6.160;2023-05-02T05:22:15;102109.53;;;12.86;100.00
4449;BME280;2237;51.870;6.160;2023-05-02T05:24:41;102114.00;;;12.78;100.00
4449;BME280;2237;51.870;6.160;2023-05-02T05:27:07;102116.50;;;12.91;100.00
4449;BME280;2237;51.870;6.160;2023-05-02T05:29:35;102120.78;;;12.97;100.00
4449;BME280;2237;51.870;6.160;2023-05-02T05:32:01;102114.59;;;13.02;100.00
4449;BME280;2237;51.870;6.160;2023-05-02T05:34:27;102135.59;;;12.96;100.00
4449;BME280;2237;51.870;6.160;2023-05-02T05:37:03;102138.44;;;12.75;100.00
4449;BME280;2237;51.870;6.160;2023-05-02T05:39:29;102134.94;;;12.76;100.00
4449;BME280;2237;51.870;6.160;2023-05-02T05:41:56;102145.50;;;12.66;100.00
4449;BME280;2237;51.870;6.160;2023-05-02T05:44:22;102145.53;;;12.60;100.00
4449;BME280;2237;51.870;6.160;2023-05-02T05:46:50;102153.34;;;12.67;100.00
4449;BME280;2237;51.870;6.160;2023-05-02T05:49:16;102156.66;;;12.81;100.00
4449;BME280;2237;51.870;6.160;2023-05-02T05:51:43;102170.66;;;12.76;100.00
4449;BME280;2237;51.870;6.160;2023-05-02T05:54:09;102172.59;;;12.59;100.00
4449;BME280;2237;51.870;6.160;2023-05-02T05:56:36;102175.22;;;12.56;100.00
4449;BME280;2237;51.870;6.160;2023-05-02T05:59:02;102177.75;;;12.63;100.00
4449;BME280;2237;51.870;6.160;2023-05-02T06:01:29;102181.28;;;12.59;100.00
4449;BME280;2237;51.870;6.160;2023-05-02T06:03:55;102182.81;;;12.80;100.00
4449;BME280;2237;51.870;6.160;2023-05-02T06:06:22;102200.13;;;12.93;100.00
4449;BME280;2237;51.870;6.160;2023-05-02T06:08:48;102190.72;;;12.77;100.00
4449;BME280;2237;51.870;6.160;2023-05-02T06:11:15;102198.63;;;12.71;100.00
4449;BME280;2237;51.870;6.160;2023-05-02T06:13:41;102202.91;;;12.75;100.00
4449;BME280;2237;51.870;6.160;2023-05-02T06:16:07;102207.16;;;12.86;100.00
4449;BME280;2237;51.870;6.160;2023-05-02T06:18:34;102204.50;;;12.91;100.00
4449;BME280;2237;51.870;6.160;2023-05-02T06:21:04;102208.09;;;12.78;100.00
4449;BME280;2237;51.870;6.160;2023-05-02T06:23:31;102215.91;;;12.85;100.00
4449;BME280;2237;51.870;6.160;2023-05-02T06:25:59;102223.72;;;12.87;100.00
4449;BME280;2237;51.870;6.160;2023-05-02T06:28:26;102220.97;;;13.02;100.00
4449;BME280;2237;51.870;6.160;2023-05-02T06:31:00;102220.03;;;13.11;100.00
4449;BME280;2237;51.870;6.160;2023-05-02T06:33:28;102238.34;;;13.11;96.58
4449;BME280;2237;51.870;6.160;2023-05-02T06:35:54;102244.44;;;13.11;95.15
4449;BME280;2237;51.870;6.160;2023-05-02T06:38:21;102244.44;;;13.07;95.25
4449;BME280;2237;51.870;6.160;2023-05-02T06:40:48;102245.38;;;13.02;97.06
4449;BME280;2237;51.870;6.160;2023-05-02T06:43:15;102258.50;;;12.95;97.91
4449;BME280;2237;51.870;6.160;2023-05-02T06:45:42;102267.06;;;13.12;97.90
4449;BME280;2237;51.870;6.160;2023-05-02T06:48:08;102274.94;;;13.14;96.57
4449;BME280;2237;51.870;6.160;2023-05-02T06:50:35;102273.16;;;13.16;97.34
4449;BME280;2237;51.870;6.160;2023-05-02T06:53:03;102280.03;;;13.26;97.00
4449;BME280;2237;51.870;6.160;2023-05-02T06:55:30;102279.97;;;13.32;96.26
4449;BME280;2237;51.870;6.160;2023-05-02T06:57:56;102279.13;;;13.31;96.28
4449;BME280;2237;51.870;6.160;2023-05-02T07:00:23;102285.03;;;13.47;95.51
4449;BME280;2237;51.870;6.160;2023-05-02T07:02:49;102293.88;;;13.35;92.04
4449;BME280;2237;51.870;6.160;2023-05-02T07:05:16;102285.09;;;13.41;92.89
4449;BME280;2237;51.870;6.160;2023-05-02T07:07:42;102292.09;;;13.39;93.75
4449;BME280;2237;51.870;6.160;2023-05-02T07:10:10;102305.88;;;13.57;94.51
4449;BME280;2237;51.870;6.160;2023-05-02T07:12:37;102298.72;;;13.70;90.91
4449;BME280;2237;51.870;6.160;2023-05-02T07:15:05;102307.41;;;13.75;91.15
4449;BME280;2237;51.870;6.160;2023-05-02T07:17:32;102309.03;;;13.85;90.63
4449;BME280;2237;51.870;6.160;2023-05-02T07:19:59;102313.19;;;14.01;91.81
4449;BME280;2237;51.870;6.160;2023-05-02T07:22:25;102313.84;;;14.17;90.81
4449;BME280;2237;51.870;6.160;2023-05-02T07:25:00;102319.09;;;14.17;89.62
4449;BME280;2237;51.870;6.160;2023-05-02T07:27:28;102326.19;;;14.09;89.94
4449;BME280;2237;51.870;6.160;2023-05-02T07:29:54;102331.06;;;13.65;87.42
4449;BME280;2237;51.870;6.160;2023-05-02T07:32:20;102336.34;;;13.62;89.52
4449;BME280;2237;51.870;6.160;2023-05-02T07:34:47;102333.69;;;13.66;87.52
4449;BME280;2237;51.870;6.160;2023-05-02T07:37:14;102344.94;;;13.74;86.02
4449;BME280;2237;51.870;6.160;2023-05-02T07:39:40;102334.38;;;13.83;85.41
4449;BME280;2237;51.870;6.160;2023-05-02T07:42:07;102342.09;;;13.94;85.52
4449;BME280;2237;51.870;6.160;2023-05-02T07:44:33;102344.63;;;14.01;81.47
4449;BME280;2237;51.870;6.160;2023-05-02T07:47:01;102347.13;;;14.12;78.67
4449;BME280;2237;51.870;6.160;2023-05-02T07:49:27;102349.53;;;14.27;77.29
4449;BME280;2237;51.870;6.160;2023-05-02T07:51:54;102353.69;;;14.45;75.92
4449;BME280;2237;51.870;6.160;2023-05-02T07:54:21;102354.78;;;14.27;73.60
4449;BME280;2237;51.870;6.160;2023-05-02T07:56:47;102359.09;;;14.30;74.16
4449;BME280;2237;51.870;6.160;2023-05-02T07:59:14;102367.84;;;14.29;74.33
4449;BME280;2237;51.870;6.160;2023-05-02T08:01:41;102359.75;;;14.48;74.19
4449;BME280;2237;51.870;6.160;2023-05-02T08:04:07;102367.22;;;14.77;72.75
4449;BME280;2237;51.870;6.160;2023-05-02T08:06:36;102363.53;;;14.87;69.99
4449;BME280;2237;51.870;6.160;2023-05-02T08:09:03;102373.13;;;14.90;67.55
4449;BME280;2237;51.870;6.160;2023-05-02T08:11:29;102379.09;;;14.99;64.67
4449;BME280;2237;51.870;6.160;2023-05-02T08:13:56;102377.72;;;14.77;62.41
4449;BME280;2237;51.870;6.160;2023-05-02T08:16:22;102372.38;;;14.80;63.80
4449;BME280;2237;51.870;6.160;2023-05-02T08:18:48;102373.75;;;15.05;63.38
4449;BME280;2237;51.870;6.160;2023-05-02T08:21:15;102382.19;;;15.24;61.57
4449;BME280;2237;51.870;6.160;2023-05-02T08:23:41;102380.94;;;15.46;61.23
4449;BME280;2237;51.870;6.160;2023-05-02T08:26:07;102389.06;;;15.29;60.98
4449;BME280;2237;51.870;6.160;2023-05-02T08:28:34;102394.94;;;14.93;62.85
4449;BME280;2237;51.870;6.160;2023-05-02T08:31:00;102407.72;;;14.56;63.02
4449;BME280;2237;51.870;6.160;2023-05-02T08:33:27;102412.25;;;14.44;63.54
4449;BME280;2237;51.870;6.160;2023-05-02T08:35:53;102410.00;;;14.10;60.82
4449;BME280;2237;51.870;6.160;2023-05-02T08:38:19;102415.59;;;13.80;60.57
4449;BME280;2237;51.870;6.160;2023-05-02T08:40:46;102422.59;;;13.78;58.61
4449;BME280;2237;51.870;6.160;2023-05-02T08:43:15;102424.88;;;14.08;58.34
4449;BME280;2237;51.870;6.160;2023-05-02T08:45:43;102432.31;;;14.46;55.88
4449;BME280;2237;51.870;6.160;2023-05-02T08:48:11;102432.16;;;14.57;53.71
4449;BME280;2237;51.870;6.160;2023-05-02T08:50:40;102430.88;;;14.87;53.81
4449;BME280;2237;51.870;6.160;2023-05-02T08:53:09;102422.59;;;15.12;51.30
4449;BME280;2237;51.870;6.160;2023-05-02T08:55:37;102427.31;;;15.47;51.18
4449;BME280;2237;51.870;6.160;2023-05-02T08:58:08;102441.97;;;15.60;49.49
4449;BME280;2237;51.870;6.160;2023-05-02T09:00:40;102421.94;;;15.55;49.55
4449;BME280;2237;51.870;6.160;2023-05-02T09:03:29;102437.97;;;15.37;49.34
4449;BME280;2237;51.870;6.160;2023-05-02T09:06:06;102431.50;;;15.59;49.97
4449;BME280;2237;51.870;6.160;2023-05-02T09:08:36;102433.41;;;15.98;49.38
4449;BME280;2237;51.870;6.160;2023-05-02T09:11:03;102440.97;;;16.15;47.93
4449;BME280;2237;51.870;6.160;2023-05-02T09:13:38;102437.56;;;16.10;47.07
4449;BME280;2237;51.870;6.160;2023-05-02T09:18:37;102449.13;;;16.01;46.70
4449;BME280;2237;51.870;6.160;2023-05-02T09:21:06;102448.47;;;15.89;45.99
4449;BME280;2237;51.870;6.160;2023-05-02T09:23:45;102454.22;;;16.10;44.74
4449;BME280;2237;51.870;6.160;2023-05-02T09:28:53;102455.94;;;16.56;44.85
4449;BME280;2237;51.870;6.160;2023-05-02T09:31:23;102477.06;;;16.51;43.96
4449;BME280;2237;51.870;6.160;2023-05-02T09:34:14;102464.59;;;16.16;44.29
4449;BME280;2237;51.870;6.160;2023-05-02T09:39:11;102467.19;;;16.18;42.85
4449;BME280;2237;51.870;6.160;2023-05-02T09:41:39;102471.31;;;16.31;42.33
4449;BME280;2237;51.870;6.160;2023-05-02T09:44:14;102479.88;;;16.40;42.21
4449;BME280;2237;51.870;6.160;2023-05-02T09:46:50;102488.09;;;16.24;41.74
4449;BME280;2237;51.870;6.160;2023-05-02T09:49:17;102482.75;;;16.28;42.28
4449;BME280;2237;51.870;6.160;2023-05-02T09:51:48;102479.28;;;16.71;42.10
4449;BME280;2237;51.870;6.160;2023-05-02T09:54:35;102488.91;;;17.12;41.15
4449;BME280;2237;51.870;6.160;2023-05-02T09:57:02;102494.06;;;16.76;39.67
4449;BME280;2237;51.870;6.160;2023-05-02T09:59:29;102497.91;;;16.62;39.29
4449;BME280;2237;51.870;6.160;2023-05-02T10:02:00;102496.28;;;16.53;39.77
4449;BME280;2237;51.870;6.160;2023-05-02T10:04:29;102484.50;;;16.74;39.75
4449;BME280;2237;51.870;6.160;2023-05-02T10:06:56;102490.31;;;17.26;39.97
4449;BME280;2237;51.870;6.160;2023-05-02T10:09:24;102497.91;;;17.38;38.82
4449;BME280;2237;51.870;6.160;2023-05-02T10:11:52;102495.97;;;17.46;38.61
4449;BME280;2237;51.870;6.160;2023-05-02T10:14:20;102500.84;;;17.63;38.64
4449;BME280;2237;51.870;6.160;2023-05-02T10:17:24;102498.63;;;17.82;37.74
4449;BME280;2237;51.870;6.160;2023-05-02T10:19:57;102499.44;;;17.84;38.18
4449;BME280;2237;51.870;6.160;2023-05-02T10:22:25;102504.59;;;17.55;37.07
4449;BME280;2237;51.870;6.160;2023-05-02T10:24:52;102498.97;;;17.31;37.41
4449;BME280;2237;51.870;6.160;2023-05-02T10:27:19;102504.09;;;17.37;37.71
4449;BME280;2237;51.870;6.160;2023-05-02T10:29:45;102499.63;;;17.41;35.91
4449;BME280;2237;51.870;6.160;2023-05-02T10:32:13;102495.13;;;17.08;37.15
4449;BME280;2237;51.870;6.160;2023-05-02T10:34:40;102494.88;;;16.80;37.35
4449;BME280;2237;51.870;6.160;2023-05-02T10:37:07;102498.28;;;16.40;37.82
4449;BME280;2237;51.870;6.160;2023-05-02T10:39:33;102497.91;;;16.14;38.97
4449;BME280;2237;51.870;6.160;2023-05-02T10:42:02;102497.50;;;16.35;38.36
4449;BME280;2237;51.870;6.160;2023-05-02T10:44:37;102497.38;;;16.86;38.14
4449;BME280;2237;51.870;6.160;2023-05-02T10:47:33;102487.91;;;17.16;36.62
4449;BME280;2237;51.870;6.160;2023-05-02T10:50:02;102501.00;;;17.20;36.81
4449;BME280;2237;51.870;6.160;2023-05-02T10:52:33;102503.75;;;17.14;36.30
4449;BME280;2237;51.870;6.160;2023-05-02T11:00:25;102504.25;;;16.49;37.93
4449;BME280;2237;51.870;6.160;2023-05-02T11:02:51;102503.97;;;16.64;37.64
4449;BME280;2237;51.870;6.160;2023-05-02T11:05:18;102493.25;;;17.13;38.06
4449;BME280;2237;51.870;6.160;2023-05-02T11:07:44;102494.44;;;17.73;37.02
4449;BME280;2237;51.870;6.160;2023-05-02T11:10:31;102491.47;;;18.51;36.63
4449;BME280;2237;51.870;6.160;2023-05-02T11:12:58;102498.91;;;18.67;35.61
4449;BME280;2237;51.870;6.160;2023-05-02T11:20:27;102488.03;;;18.46;35.57
4449;BME280;2237;51.870;6.160;2023-05-02T11:22:56;102489.81;;;18.46;35.70
4449;BME280;2237;51.870;6.160;2023-05-02T11:25:33;102496.66;;;18.22;35.14
4449;BME280;2237;51.870;6.160;2023-05-02T11:28:01;102489.25;;;18.04;35.55
4449;BME280;2237;51.870;6.160;2023-05-02T11:30:43;102488.81;;;17.87;36.03
4449;BME280;2237;51.870;6.160;2023-05-02T11:33:11;102479.69;;;18.00;37.19
4449;BME280;2237;51.870;6.160;2023-05-02T11:35:41;102480.22;;;18.13;35.55
4449;BME280;2237;51.870;6.160;2023-05-02T11:38:11;102485.59;;;18.40;36.05
4449;BME280;2237;51.870;6.160;2023-05-02T11:40:37;102492.84;;;18.32;35.77
4449;BME280;2237;51.870;6.160;2023-05-02T11:43:15;102490.91;;;18.39;36.36
4449;BME280;2237;51.870;6.160;2023-05-02T11:45:42;102505.63;;;18.17;36.25
4449;BME280;2237;51.870;6.160;2023-05-02T11:48:11;102499.50;;;18.15;36.02
4449;BME280;2237;51.870;6.160;2023-05-02T11:50:46;102501.34;;;18.11;36.14
4449;BME280;2237;51.870;6.160;2023-05-02T11:53:21;102508.66;;;18.34;36.38
4449;BME280;2237;51.870;6.160;2023-05-02T11:55:50;102507.00;;;18.62;36.62
4449;BME280;2237;51.870;6.160;2023-05-02T11:58:21;102504.28;;;18.93;35.82
4449;BME280;2237;51.870;6.160;2023-05-02T12:00:51;102502.44;;;18.96;35.68
4449;BME280;2237;51.870;6.160;2023-05-02T12:03:30;102505.25;;;18.90;34.37
4449;BME280;2237;51.870;6.160;2023-05-02T12:06:08;102517.53;;;18.62;34.31
4449;BME280;2237;51.870;6.160;2023-05-02T12:08:39;102520.63;;;18.78;33.92
4449;BME280;2237;51.870;6.160;2023-05-02T12:11:06;102530.78;;;18.90;34.03
4449;BME280;2237;51.870;6.160;2023-05-02T12:13:32;102520.72;;;19.02;33.99
4449;BME280;2237;51.870;6.160;2023-05-02T12:15:59;102524.88;;;19.11;33.69
4449;BME280;2237;51.870;6.160;2023-05-02T12:18:26;102526.81;;;18.75;34.61
4449;BME280;2237;51.870;6.160;2023-05-02T12:20:55;102526.16;;;18.69;35.61
4449;BME280;2237;51.870;6.160;2023-05-02T12:23:23;102518.19;;;18.70;35.04
4449;BME280;2237;51.870;6.160;2023-05-02T12:25:51;102517.88;;;18.50;35.75
4449;BME280;2237;51.870;6.160;2023-05-02T12:28:18;102523.00;;;18.56;36.11
4449;BME280;2237;51.870;6.160;2023-05-02T12:30:47;102529.25;;;18.83;35.86
4449;BME280;2237;51.870;6.160;2023-05-02T12:33:14;102526.22;;;19.24;34.86
4449;BME280;2237;51.870;6.160;2023-05-02T12:38:38;102536.31;;;19.10;33.41
4449;BME280;2237;51.870;6.160;2023-05-02T12:41:06;102531.47;;;18.96;33.88
4449;BME280;2237;51.870;6.160;2023-05-02T12:43:48;102544.31;;;19.36;34.69
4449;BME280;2237;51.870;6.160;2023-05-02T12:46:16;102541.81;;;19.61;32.80
4449;BME280;2237;51.870;6.160;2023-05-02T12:48:43;102534.47;;;19.43;32.58
4449;BME280;2237;51.870;6.160;2023-05-02T12:51:21;102544.69;;;19.80;32.49
4449;BME280;2237;51.870;6.160;2023-05-02T12:53:49;102552.41;;;19.86;31.62
4449;BME280;2237;51.870;6.160;2023-05-02T12:56:15;102550.03;;;19.78;32.35
4449;BME280;2237;51.870;6.160;2023-05-02T12:58:45;102534.47;;;19.95;33.47
4449;BME280;2237;51.870;6.160;2023-05-02T13:01:13;102548.88;;;19.87;31.72
4449;BME280;2237;51.870;6.160;2023-05-02T13:03:41;102551.00;;;19.76;31.60
4449;BME280;2237;51.870;6.160;2023-05-02T13:06:08;102557.69;;;20.12;33.06
4449;BME280;2237;51.870;6.160;2023-05-02T13:08:35;102555.97;;;20.11;32.34
4449;BME280;2237;51.870;6.160;2023-05-02T13:11:02;102549.34;;;20.25;31.60
4449;BME280;2237;51.870;6.160;2023-05-02T13:13:29;102557.19;;;20.27;30.87
4449;BME280;2237;51.870;6.160;2023-05-02T13:15:56;102559.91;;;20.24;30.54
4449;BME280;2237;51.870;6.160;2023-05-02T13:18:22;102564.31;;;20.50;31.21
4449;BME280;2237;51.870;6.160;2023-05-02T13:20:49;102558.88;;;20.54;31.41
4449;BME280;2237;51.870;6.160;2023-05-02T13:23:15;102554.91;;;20.41;30.62
4449;BME280;2237;51.870;6.160;2023-05-02T13:25:42;102552.41;;;20.61;31.59
4449;BME280;2237;51.870;6.160;2023-05-02T13:28:08;102562.00;;;20.89;31.19
4449;BME280;2237;51.870;6.160;2023-05-02T13:30:35;102552.72;;;21.45;29.69
4449;BME280;2237;51.870;6.160;2023-05-02T13:33:01;102562.22;;;21.72;30.08
4449;BME280;2237;51.870;6.160;2023-05-02T13:35:28;102562.59;;;21.63;30.20
4449;BME280;2237;51.870;6.160;2023-05-02T13:37:54;102555.06;;;21.74;28.49
4449;BME280;2237;51.870;6.160;2023-05-02T13:40:21;102562.03;;;21.99;29.75
4449;BME280;2237;51.870;6.160;2023-05-02T13:42:47;102552.97;;;23.92;28.25
4449;BME280;2237;51.870;6.160;2023-05-02T13:45:13;102552.44;;;28.42;24.03
4449;BME280;2237;51.870;6.160;2023-05-02T13:47:41;102558.50;;;27.67;23.54
4449;BME280;2237;51.870;6.160;2023-05-02T13:50:08;102557.72;;;26.97;23.92
4449;BME280;2237;51.870;6.160;2023-05-02T13:52:34;102553.75;;;31.61;19.60